createdAt,value
2019-03-15T00:00:42.147Z,97411.80
2019-03-15T00:03:13.712Z,97409.20
2019-03-15T00:05:45.288Z,97412.89
2019-03-15T00:08:17.907Z,97420.34
2019-03-15T00:10:49.552Z,97418.19
2019-03-15T00:13:21.081Z,97430.45
2019-03-15T00:15:52.649Z,97433.53
2019-03-15T00:18:24.233Z,97430.56
2019-03-15T00:20:55.813Z,97435.38
2019-03-15T00:23:27.338Z,97445.45
2019-03-15T00:25:58.976Z,97445.34
2019-03-15T00:28:30.518Z,97456.48
2019-03-15T00:31:02.130Z,97459.79
2019-03-15T00:33:34.746Z,97464.98
2019-03-15T00:36:06.526Z,97459.79
2019-03-15T00:38:38.078Z,97462.89
2019-03-15T00:41:09.645Z,97451.58
2019-03-15T00:43:41.203Z,97456.06
2019-03-15T00:46:12.795Z,97459.31
2019-03-15T00:48:44.358Z,97460.27
2019-03-15T00:51:15.921Z,97456.69
2019-03-15T00:53:47.487Z,97466.01
2019-03-15T00:56:19.031Z,97464.00
2019-03-15T00:58:50.633Z,97469.56
2019-03-15T01:01:22.181Z,97470.38
2019-03-15T01:03:53.751Z,97469.48
2019-03-15T01:06:25.316Z,97472.56
2019-03-15T01:08:57.970Z,97469.97
2019-03-15T01:11:29.512Z,97462.11
2019-03-15T01:14:01.058Z,97463.39
2019-03-15T01:16:34.693Z,97468.14
2019-03-15T01:19:06.343Z,97472.27
2019-03-15T01:21:37.990Z,97471.07
2019-03-15T01:24:09.571Z,97471.41
2019-03-15T01:26:41.097Z,97471.89
2019-03-15T01:29:12.706Z,97475.48
2019-03-15T01:31:44.259Z,97478.08
2019-03-15T01:34:17.020Z,97485.32
2019-03-15T01:36:48.582Z,97485.52
2019-03-15T01:39:20.165Z,97481.63
2019-03-15T01:41:51.703Z,97485.87
2019-03-15T01:44:23.257Z,97485.87
2019-03-15T01:46:54.791Z,97487.81
2019-03-15T01:49:26.355Z,97498.73
2019-03-15T01:51:58.002Z,97502.56
2019-03-15T01:54:29.562Z,97502.66
2019-03-15T01:57:01.136Z,97508.33
2019-03-15T01:59:32.687Z,97501.84
2019-03-15T02:02:04.252Z,97503.14
2019-03-15T02:04:35.887Z,97503.04
2019-03-15T02:07:07.450Z,97506.76
2019-03-15T02:09:39.073Z,97503.24
2019-03-15T02:12:10.655Z,97502.05
2019-03-15T02:14:42.285Z,97505.46
2019-03-15T02:17:14.004Z,97504.74
2019-03-15T02:19:45.632Z,97507.78
2019-03-15T02:22:17.169Z,97508.87
2019-03-15T02:24:48.741Z,97503.04
2019-03-15T02:27:20.283Z,97507.17
2019-03-15T02:29:51.871Z,97509.32
2019-03-15T02:32:23.470Z,97512.36
2019-03-15T02:34:55.017Z,97511.23
2019-03-15T02:37:26.575Z,97503.69
2019-03-15T02:39:58.112Z,97493.95
2019-03-15T02:42:29.671Z,97490.78
2019-03-15T02:45:01.227Z,97492.70
2019-03-15T02:47:32.791Z,97477.50
2019-03-15T02:50:04.573Z,97476.36
2019-03-15T02:52:37.230Z,97476.70
2019-03-15T02:55:09.869Z,97463.28
2019-03-15T02:57:41.419Z,97473.19
2019-03-15T03:00:15.902Z,97475.06
2019-03-15T03:02:49.198Z,97475.98
2019-03-15T03:05:22.223Z,97476.58
2019-03-15T03:07:53.766Z,97477.29
2019-03-15T03:10:25.327Z,97478.48
2019-03-15T03:12:56.913Z,97484.50
2019-03-15T03:15:28.457Z,97482.65
2019-03-15T03:18:04.319Z,97483.20
2019-03-15T03:20:41.770Z,97479.30
2019-03-15T03:23:13.304Z,97481.55
2019-03-15T03:25:46.369Z,97480.05
2019-03-15T03:28:20.918Z,97484.29
2019-03-15T03:30:54.992Z,97484.77
2019-03-15T03:33:27.540Z,97488.93
2019-03-15T03:35:59.151Z,97491.87
2019-03-15T03:38:30.681Z,97492.52
2019-03-15T03:41:02.225Z,97491.83
2019-03-15T03:43:33.778Z,97484.25
2019-03-15T03:46:05.314Z,97483.77
2019-03-15T03:48:36.855Z,97490.47
2019-03-15T03:51:08.731Z,97490.91
2019-03-15T03:53:40.434Z,97493.67
2019-03-15T03:56:12.021Z,97500.16
2019-03-15T03:58:43.580Z,97496.02
2019-03-15T04:01:15.105Z,97502.52
2019-03-15T04:03:46.682Z,97506.00
2019-03-15T04:06:18.203Z,97509.31
2019-03-15T04:08:49.848Z,97510.61
2019-03-15T04:11:23.017Z,97511.12
2019-03-15T04:13:57.613Z,97506.23
2019-03-15T04:16:29.269Z,97512.94
2019-03-15T04:19:00.794Z,97515.91
2019-03-15T04:21:32.348Z,97512.35
2019-03-15T04:24:03.877Z,97505.86
2019-03-15T04:26:36.505Z,97509.14
2019-03-15T04:29:08.037Z,97509.08
2019-03-15T04:31:39.579Z,97521.04
2019-03-15T04:34:11.141Z,97524.48
2019-03-15T04:36:43.743Z,97525.52
2019-03-15T04:39:16.656Z,97523.50
2019-03-15T04:41:48.196Z,97528.22
2019-03-15T04:44:19.733Z,97528.12
2019-03-15T04:46:51.278Z,97529.69
2019-03-15T04:49:22.814Z,97534.88
2019-03-15T04:51:54.378Z,97535.05
2019-03-15T04:54:25.933Z,97532.08
2019-03-15T04:56:57.476Z,97541.98
2019-03-15T04:59:29.021Z,97533.71
2019-03-15T05:02:00.549Z,97533.09
2019-03-15T05:04:32.103Z,97534.89
2019-03-15T05:07:03.688Z,97536.67
2019-03-15T05:09:35.264Z,97532.19
2019-03-15T05:12:06.824Z,97536.16
2019-03-15T05:14:38.402Z,97530.38
2019-03-15T05:17:09.935Z,97529.45
2019-03-15T05:19:41.472Z,97521.70
2019-03-15T05:22:13.048Z,97521.91
2019-03-15T05:24:44.605Z,97530.58
2019-03-15T05:27:16.171Z,97519.52
2019-03-15T05:29:47.715Z,97512.02
2019-03-15T05:32:19.275Z,97510.69
2019-03-15T05:34:50.832Z,97512.91
2019-03-15T05:37:22.365Z,97509.84
2019-03-15T05:39:55.979Z,97509.94
2019-03-15T05:42:27.504Z,97507.72
2019-03-15T05:44:59.070Z,97504.78
2019-03-15T05:47:30.588Z,97510.08
2019-03-15T05:50:02.130Z,97503.05
2019-03-15T05:52:33.678Z,97511.38
2019-03-15T05:55:05.972Z,97507.08
2019-03-15T05:57:37.537Z,97505.67
2019-03-15T06:00:11.670Z,97503.66
2019-03-15T06:02:43.309Z,97510.31
2019-03-15T06:05:14.945Z,97515.20
2019-03-15T06:07:46.507Z,97517.70
2019-03-15T06:10:25.485Z,97510.66
2019-03-15T06:12:59.364Z,97527.39
2019-03-15T06:15:30.915Z,97524.19
2019-03-15T06:18:02.446Z,97524.09
2019-03-15T06:20:33.999Z,97525.79
2019-03-15T06:23:05.552Z,97520.73
2019-03-15T06:25:37.125Z,97522.81
2019-03-15T06:28:08.669Z,97528.55
2019-03-15T06:30:40.240Z,97529.89
2019-03-15T06:33:12.857Z,97528.77
2019-03-15T06:35:44.454Z,97537.92
2019-03-15T06:38:16.007Z,97537.17
2019-03-15T06:40:47.568Z,97536.52
2019-03-15T06:43:19.123Z,97540.58
2019-03-15T06:45:50.706Z,97546.86
2019-03-15T06:48:22.246Z,97543.79
2019-03-15T06:50:53.778Z,97544.27
2019-03-15T06:53:25.334Z,97539.48
2019-03-15T06:55:56.898Z,97543.17
2019-03-15T06:58:36.285Z,97548.78
2019-03-15T07:01:07.838Z,97545.77
2019-03-15T07:03:39.398Z,97552.05
2019-03-15T07:06:12.652Z,97548.42
2019-03-15T07:08:45.494Z,97557.52
2019-03-15T07:11:18.618Z,97553.08
2019-03-15T07:13:50.186Z,97556.78
2019-03-15T07:16:25.564Z,97552.06
2019-03-15T07:18:57.103Z,97551.45
2019-03-15T07:21:30.386Z,97558.17
2019-03-15T07:24:04.539Z,97567.38
2019-03-15T07:26:43.615Z,97570.03
2019-03-15T07:29:19.070Z,97567.27
2019-03-15T07:31:55.070Z,97562.92
2019-03-15T07:34:26.634Z,97556.27
2019-03-15T07:36:59.066Z,97559.16
2019-03-15T07:39:34.798Z,97550.38
2019-03-15T07:42:07.028Z,97551.51
2019-03-15T07:44:39.990Z,97551.67
2019-03-15T07:47:16.200Z,97556.76
2019-03-15T07:49:48.093Z,97548.89
2019-03-15T07:52:19.648Z,97544.96
2019-03-15T07:54:51.263Z,97544.20
2019-03-15T07:57:23.935Z,97540.49
2019-03-15T07:59:55.651Z,97547.25
2019-03-15T08:02:27.206Z,97540.67
2019-03-15T08:04:58.751Z,97534.80
2019-03-15T08:07:37.824Z,97527.11
2019-03-15T08:10:06.203Z,97530.13
2019-03-15T08:12:38.892Z,97525.34
2019-03-15T08:15:11.830Z,97511.72
2019-03-15T08:17:43.428Z,97521.59
2019-03-15T08:20:18.641Z,97513.59
2019-03-15T08:22:51.574Z,97511.31
2019-03-15T08:25:25.051Z,97507.17
2019-03-15T08:28:00.023Z,97507.34
2019-03-15T08:30:36.495Z,97505.47
2019-03-15T08:33:10.438Z,97504.23
2019-03-15T08:35:49.854Z,97495.22
2019-03-15T08:38:22.602Z,97488.69
2019-03-15T08:40:54.156Z,97485.83
2019-03-15T08:43:25.696Z,97481.54
2019-03-15T08:45:57.286Z,97481.38
2019-03-15T08:48:31.805Z,97491.56
2019-03-15T08:51:02.135Z,97496.97
2019-03-15T08:53:36.024Z,97496.81
2019-03-15T08:56:09.559Z,97491.42
2019-03-15T08:58:41.102Z,97498.19
2019-03-15T09:01:12.651Z,97479.13
2019-03-15T09:03:44.229Z,97484.66
2019-03-15T09:06:15.850Z,97480.84
2019-03-15T09:08:47.438Z,97474.25
2019-03-15T09:11:19.115Z,97472.55
2019-03-15T09:13:52.029Z,97455.94
2019-03-15T09:16:23.649Z,97469.98
2019-03-15T09:18:57.698Z,97458.70
2019-03-15T09:21:32.418Z,97460.13
2019-03-15T09:24:09.309Z,97456.34
2019-03-15T09:26:40.885Z,97459.66
2019-03-15T09:29:15.231Z,97456.34
2019-03-15T09:31:48.323Z,97455.52
2019-03-15T09:34:23.486Z,97446.43
2019-03-15T09:36:59.470Z,97445.61
2019-03-15T09:39:32.148Z,97444.95
2019-03-15T09:42:06.516Z,97431.59
2019-03-15T09:44:40.466Z,97440.86
2019-03-15T09:47:14.135Z,97439.13
2019-03-15T09:49:48.498Z,97432.73
2019-03-15T09:52:20.038Z,97434.75
2019-03-15T09:54:51.616Z,97425.87
2019-03-15T09:57:24.290Z,97438.58
2019-03-15T09:59:59.147Z,97433.77
2019-03-15T10:02:32.483Z,97426.60
2019-03-15T10:05:10.574Z,97429.54
2019-03-15T10:07:40.293Z,97431.36
2019-03-15T10:10:18.980Z,97429.28
2019-03-15T10:13:05.827Z,97429.33
2019-03-15T10:15:30.051Z,97413.16
2019-03-15T10:18:07.331Z,97414.27
2019-03-15T10:20:45.363Z,97420.91
2019-03-15T10:23:23.586Z,97413.84
2019-03-15T10:26:01.979Z,97415.16
2019-03-15T10:28:34.736Z,97416.25
2019-03-15T10:31:06.425Z,97423.72
2019-03-15T10:33:49.738Z,97418.04
2019-03-15T10:36:11.271Z,97420.75
2019-03-15T10:38:42.817Z,97414.59
2019-03-15T10:41:14.384Z,97420.88
2019-03-15T10:43:50.307Z,97422.53
2019-03-15T10:46:23.065Z,97415.67
2019-03-15T10:48:54.647Z,97416.84
2019-03-15T10:51:26.237Z,97432.63
2019-03-15T10:53:59.269Z,97425.69
2019-03-15T10:56:31.004Z,97425.34
2019-03-15T10:59:02.506Z,97427.92
2019-03-15T11:01:34.102Z,97425.45
2019-03-15T11:04:05.660Z,97427.09
2019-03-15T11:06:37.268Z,97427.92
2019-03-15T11:09:09.380Z,97423.30
2019-03-15T11:11:40.989Z,97425.45
2019-03-15T11:14:12.556Z,97421.64
2019-03-15T11:16:44.146Z,97431.25
2019-03-15T11:19:15.879Z,97430.41
2019-03-15T11:21:47.502Z,97432.78
2019-03-15T11:24:19.093Z,97426.72
2019-03-15T11:26:50.683Z,97436.58
2019-03-15T11:29:22.315Z,97436.80
2019-03-15T11:31:53.947Z,97430.28
2019-03-15T11:34:25.544Z,97434.04
2019-03-15T11:36:58.578Z,97432.37
2019-03-15T11:39:30.390Z,97427.28
2019-03-15T11:42:01.992Z,97418.36
2019-03-15T11:44:33.556Z,97422.72
2019-03-15T11:47:05.262Z,97428.14
2019-03-15T11:49:37.881Z,97419.81
2019-03-15T11:52:09.449Z,97427.52
2019-03-15T11:54:41.036Z,97419.20
2019-03-15T11:57:12.626Z,97429.06
2019-03-15T11:59:44.230Z,97418.02
2019-03-15T12:02:15.838Z,97425.96
2019-03-15T12:04:47.427Z,97422.48
2019-03-15T12:07:19.025Z,97428.20
2019-03-15T12:09:50.583Z,97425.23
2019-03-15T12:12:22.172Z,97431.14
2019-03-15T12:14:53.735Z,97433.50
2019-03-15T12:17:25.384Z,97437.91
2019-03-15T12:19:56.915Z,97438.47
2019-03-15T12:22:29.658Z,97436.11
2019-03-15T12:25:01.221Z,97439.66
2019-03-15T12:27:32.810Z,97430.14
2019-03-15T12:30:04.782Z,97434.55
2019-03-15T12:32:36.353Z,97434.42
2019-03-15T12:35:10.194Z,97423.05
2019-03-15T12:37:41.810Z,97438.33
2019-03-15T12:40:14.610Z,97445.44
2019-03-15T12:42:46.217Z,97441.41
2019-03-15T12:45:17.964Z,97433.11
2019-03-15T12:47:49.548Z,97437.36
2019-03-15T12:50:21.157Z,97430.94
2019-03-15T12:52:52.809Z,97452.31
2019-03-15T12:55:24.417Z,97451.14
2019-03-15T12:57:56.025Z,97453.70
2019-03-15T13:00:27.645Z,97445.78
2019-03-15T13:02:59.215Z,97457.75
2019-03-15T13:05:30.798Z,97457.07
2019-03-15T13:08:02.353Z,97435.33
2019-03-15T13:10:33.939Z,97451.11
2019-03-15T13:13:05.505Z,97460.12
2019-03-15T13:15:37.091Z,97460.02
2019-03-15T13:18:08.681Z,97467.27
2019-03-15T13:20:40.246Z,97473.31
2019-03-15T13:23:11.832Z,97465.11
2019-03-15T13:25:43.427Z,97468.58
2019-03-15T13:28:14.984Z,97472.48
2019-03-15T13:30:46.598Z,97480.07
2019-03-15T13:33:20.802Z,97469.03
2019-03-15T13:35:51.537Z,97469.16
2019-03-15T13:38:23.164Z,97467.27
2019-03-15T13:40:54.768Z,97469.39
2019-03-15T13:43:26.320Z,97467.58
2019-03-15T13:45:57.922Z,97464.59
2019-03-15T13:48:29.511Z,97472.30
2019-03-15T13:51:01.103Z,97477.78
2019-03-15T13:53:32.692Z,97476.59
2019-03-15T13:56:04.347Z,97474.79
2019-03-15T13:58:37.533Z,97469.19
2019-03-15T14:01:09.410Z,97462.66
2019-03-15T14:03:41.082Z,97467.88
2019-03-15T14:06:12.718Z,97460.38
2019-03-15T14:08:44.309Z,97467.62
2019-03-15T14:11:15.941Z,97472.93
2019-03-15T14:13:47.663Z,97472.34
2019-03-15T14:16:20.339Z,97476.83
2019-03-15T14:18:53.048Z,97473.40
2019-03-15T14:21:24.627Z,97486.41
2019-03-15T14:23:57.222Z,97484.29
2019-03-15T14:26:28.796Z,97474.53
2019-03-15T14:29:00.467Z,97487.95
2019-03-15T14:31:32.049Z,97489.14
2019-03-15T14:34:03.721Z,97463.78
2019-03-15T14:36:35.244Z,97483.53
2019-03-15T14:39:09.381Z,97487.06
2019-03-15T14:41:41.121Z,97485.19
2019-03-15T14:44:14.126Z,97473.81
2019-03-15T14:46:47.632Z,97492.55
2019-03-15T14:49:20.273Z,97494.34
2019-03-15T14:51:51.896Z,97489.44
2019-03-15T14:54:23.436Z,97490.42
2019-03-15T14:56:55.006Z,97482.70
2019-03-15T14:59:26.633Z,97493.05
2019-03-15T15:01:58.221Z,97492.42
2019-03-15T15:04:29.900Z,97494.77
2019-03-15T15:07:01.477Z,97495.84
2019-03-15T15:09:33.080Z,97495.47
2019-03-15T15:12:04.664Z,97490.04
2019-03-15T15:14:36.297Z,97487.55
2019-03-15T15:17:07.959Z,97486.81
2019-03-15T15:19:39.550Z,97491.91
2019-03-15T15:22:11.121Z,97499.70
2019-03-15T15:24:43.817Z,97493.83
2019-03-15T15:27:15.419Z,97495.88
2019-03-15T15:29:46.998Z,97493.03
2019-03-15T15:32:18.572Z,97489.22
2019-03-15T15:34:51.726Z,97499.77
2019-03-15T15:37:23.354Z,97489.19
2019-03-15T15:39:54.960Z,97494.75
2019-03-15T15:42:26.566Z,97500.47
2019-03-15T15:44:58.174Z,97489.65
2019-03-15T15:47:29.856Z,97487.52
2019-03-15T15:50:01.564Z,97485.14
2019-03-15T15:52:34.555Z,97478.93
2019-03-15T15:55:06.313Z,97485.70
2019-03-15T15:57:37.979Z,97489.48
2019-03-15T16:00:12.218Z,97502.20
2019-03-15T16:02:43.854Z,97499.33
2019-03-15T16:05:15.687Z,97502.56
2019-03-15T16:07:47.431Z,97490.05
2019-03-15T16:10:20.884Z,97498.38
2019-03-15T16:12:52.458Z,97480.51
2019-03-15T16:15:24.083Z,97488.16
2019-03-15T16:17:55.681Z,97484.82
2019-03-15T16:20:27.283Z,97489.59
2019-03-15T16:22:58.838Z,97484.82
2019-03-15T16:25:30.449Z,97489.92
2019-03-15T16:28:03.132Z,97496.92
2019-03-15T16:30:34.703Z,97497.25
2019-03-15T16:33:06.320Z,97504.27
2019-03-15T16:35:37.955Z,97506.07
2019-03-15T16:38:09.542Z,97507.51
2019-03-15T16:40:41.345Z,97516.98
2019-03-15T16:43:13.466Z,97520.71
2019-03-15T16:45:45.849Z,97517.71
2019-03-15T16:48:17.419Z,97512.38
2019-03-15T16:50:51.706Z,97510.55
2019-03-15T16:53:22.646Z,97525.16
2019-03-15T16:55:55.644Z,97536.22
2019-03-15T16:58:27.522Z,97533.53
2019-03-15T17:00:59.376Z,97521.40
2019-03-15T17:03:31.112Z,97528.30
2019-03-15T17:06:02.794Z,97530.06
2019-03-15T17:08:35.866Z,97525.69
2019-03-15T17:11:07.484Z,97533.78
2019-03-15T17:13:39.112Z,97533.53
2019-03-15T17:16:10.959Z,97532.78
2019-03-15T17:18:42.771Z,97532.03
2019-03-15T17:21:14.425Z,97535.89
2019-03-15T17:23:46.089Z,97529.61
2019-03-15T17:26:19.186Z,97543.60
2019-03-15T17:28:58.602Z,97528.17
2019-03-15T17:31:24.245Z,97531.84
2019-03-15T17:33:55.987Z,97530.98
2019-03-15T17:36:27.622Z,97535.53
2019-03-15T17:38:59.478Z,97532.03
2019-03-15T17:41:31.450Z,97527.78
2019-03-15T17:44:03.234Z,97540.86
2019-03-15T17:46:34.858Z,97536.80
2019-03-15T17:49:06.510Z,97529.65
2019-03-15T17:51:38.230Z,97533.44
2019-03-15T17:54:09.879Z,97537.23
2019-03-15T17:56:41.619Z,97548.16
2019-03-15T17:59:13.285Z,97538.41
2019-03-15T18:01:44.980Z,97535.08
2019-03-15T18:04:16.615Z,97540.05
2019-03-15T18:06:48.272Z,97529.72
2019-03-15T18:09:19.893Z,97530.34
2019-03-15T18:11:51.713Z,97548.13
2019-03-15T18:14:23.412Z,97537.17
2019-03-15T18:16:55.053Z,97554.01
2019-03-15T18:19:26.708Z,97549.39
2019-03-15T18:21:58.332Z,97548.58
2019-03-15T18:24:30.037Z,97548.47
2019-03-15T18:27:01.618Z,97540.27
2019-03-15T18:29:33.259Z,97537.78
2019-03-15T18:32:06.405Z,97530.19
2019-03-15T18:34:38.128Z,97527.12
2019-03-15T18:37:09.969Z,97536.45
2019-03-15T18:39:41.770Z,97533.83
2019-03-15T18:42:13.527Z,97527.06
2019-03-15T18:44:45.220Z,97535.62
2019-03-15T18:47:17.295Z,97534.88
2019-03-15T18:49:50.631Z,97544.10
2019-03-15T18:52:22.555Z,97530.47
2019-03-15T18:54:54.584Z,97538.67
2019-03-15T18:57:27.215Z,97553.06
2019-03-15T18:59:59.001Z,97541.06
2019-03-15T19:02:30.783Z,97550.75
2019-03-15T19:05:02.468Z,97549.31
2019-03-15T19:07:34.166Z,97547.51
2019-03-15T19:10:06.593Z,97542.41
2019-03-15T19:12:38.224Z,97550.98
2019-03-15T19:15:11.661Z,97554.64
2019-03-15T19:17:43.275Z,97566.48
2019-03-15T19:20:15.060Z,97562.79
2019-03-15T19:22:46.667Z,97564.66
2019-03-15T19:25:18.262Z,97564.45
2019-03-15T19:27:49.879Z,97561.74
2019-03-15T19:30:21.677Z,97579.56
2019-03-15T19:32:53.267Z,97567.63
2019-03-15T19:35:24.994Z,97573.94
2019-03-15T19:37:56.603Z,97579.41
2019-03-15T19:40:28.310Z,97592.13
2019-03-15T19:42:59.904Z,97582.05
2019-03-15T19:45:31.889Z,97581.41
2019-03-15T19:48:03.497Z,97579.14
2019-03-15T19:50:35.099Z,97578.14
2019-03-15T19:53:07.003Z,97582.45
2019-03-15T19:55:38.616Z,97577.87
2019-03-15T19:58:10.203Z,97583.98
2019-03-15T20:00:41.821Z,97589.19
2019-03-15T20:03:13.414Z,97590.36
2019-03-15T20:05:45.090Z,97582.77
2019-03-15T20:08:16.688Z,97586.89
2019-03-15T20:10:48.296Z,97595.36
2019-03-15T20:13:19.902Z,97590.69
2019-03-15T20:15:52.593Z,97603.06
2019-03-15T20:18:24.155Z,97604.70
2019-03-15T20:20:55.758Z,97612.38
2019-03-15T20:23:27.370Z,97608.22
2019-03-15T20:25:58.992Z,97619.53
2019-03-15T20:28:30.624Z,97626.73
2019-03-15T20:31:02.250Z,97618.76
2019-03-15T20:33:33.855Z,97628.24
2019-03-15T20:36:05.465Z,97623.63
2019-03-15T20:38:37.122Z,97633.97
2019-03-15T20:41:08.827Z,97636.48
2019-03-15T20:43:40.445Z,97639.59
2019-03-15T20:46:15.756Z,97636.86
2019-03-15T20:48:46.523Z,97644.84
2019-03-15T20:51:18.138Z,97645.52
2019-03-15T20:53:49.722Z,97650.00
2019-03-15T20:56:21.491Z,97643.08
2019-03-15T20:58:53.183Z,97651.77
2019-03-15T21:01:24.797Z,97650.20
2019-03-15T21:03:56.574Z,97649.95
2019-03-15T21:06:28.304Z,97655.50
2019-03-15T21:08:59.992Z,97645.61
2019-03-15T21:11:33.314Z,97653.70
2019-03-15T21:14:05.084Z,97669.64
2019-03-15T21:16:36.709Z,97661.90
2019-03-15T21:19:08.307Z,97669.09
2019-03-15T21:21:39.925Z,97673.58
2019-03-15T21:24:11.524Z,97681.64
2019-03-15T21:26:43.081Z,97678.44
2019-03-15T21:29:14.884Z,97681.41
2019-03-15T21:31:46.489Z,97699.11
2019-03-15T21:34:19.155Z,97691.64
2019-03-15T21:36:51.966Z,97686.16
2019-03-15T21:39:23.602Z,97679.42
2019-03-15T21:41:55.376Z,97677.98
2019-03-15T21:44:27.000Z,97687.06
2019-03-15T21:46:58.782Z,97700.96
2019-03-15T21:49:30.381Z,97693.61
2019-03-15T21:52:02.001Z,97694.38
2019-03-15T21:54:33.610Z,97688.09
2019-03-15T21:57:05.204Z,97711.91
2019-03-15T21:59:39.148Z,97704.83
2019-03-15T22:02:10.099Z,97695.80
2019-03-15T22:04:41.825Z,97713.61
2019-03-15T22:07:13.452Z,97717.53
2019-03-15T22:09:45.077Z,97718.46
2019-03-15T22:12:16.664Z,97706.45
2019-03-15T22:14:48.251Z,97734.86
2019-03-15T22:17:19.864Z,97713.47
2019-03-15T22:19:51.494Z,97724.50
2019-03-15T22:22:23.114Z,97725.94
2019-03-15T22:24:54.757Z,97721.39
2019-03-15T22:27:26.488Z,97727.81
2019-03-15T22:29:58.120Z,97720.20
2019-03-15T22:32:29.794Z,97707.85
2019-03-15T22:35:01.424Z,97717.72
2019-03-15T22:37:33.023Z,97719.63
2019-03-15T22:40:04.889Z,97719.39
2019-03-15T22:42:36.477Z,97712.87
2019-03-15T22:45:08.648Z,97714.66
2019-03-15T22:47:40.228Z,97713.72
2019-03-15T22:50:12.355Z,97705.74
2019-03-15T22:52:45.051Z,97708.92
2019-03-15T22:55:16.662Z,97699.66
2019-03-15T22:57:59.274Z,97709.32
2019-03-15T23:00:23.224Z,97703.96
2019-03-15T23:02:56.472Z,97715.53
2019-03-15T23:05:28.095Z,97722.66
2019-03-15T23:07:59.675Z,97728.98
2019-03-15T23:10:31.301Z,97724.69
2019-03-15T23:13:02.852Z,97730.63
2019-03-15T23:15:34.479Z,97723.70
2019-03-15T23:18:06.081Z,97713.63
2019-03-15T23:20:38.762Z,97723.63
2019-03-15T23:23:22.842Z,97726.12
2019-03-15T23:25:43.799Z,97731.48
2019-03-15T23:28:15.525Z,97740.27
2019-03-15T23:30:47.138Z,97731.48
2019-03-15T23:33:18.835Z,97744.80
2019-03-15T23:35:54.229Z,97750.28
2019-03-15T23:38:23.764Z,97738.06
2019-03-15T23:40:55.372Z,97747.92
2019-03-15T23:43:26.931Z,97740.20
2019-03-15T23:45:58.569Z,97751.92
2019-03-15T23:48:30.189Z,97746.86
2019-03-15T23:51:01.777Z,97734.14
2019-03-15T23:53:33.374Z,97729.48
2019-03-15T23:56:04.927Z,97740.32
2019-03-15T23:58:36.532Z,97741.02
